sensor_id;sensor_type;location;lat;lon;timestamp;P1;durP1;ratioP1;P2;durP2;ratioP2
58083;SDS011;43882;51.550;11.858;2023-06-10T00:01:03;15.55;;;5.22;;
58083;SDS011;43882;51.550;11.858;2023-06-10T00:04:28;18.27;;;4.85;;
58083;SDS011;43882;51.550;11.858;2023-06-10T00:07:56;16.75;;;5.13;;
58083;SDS011;43882;51.550;11.858;2023-06-10T00:11:21;17.90;;;6.05;;
58083;SDS011;43882;51.550;11.858;2023-06-10T00:14:45;16.67;;;5.55;;
58083;SDS011;43882;51.550;11.858;2023-06-10T00:18:10;16.55;;;5.38;;
58083;SDS011;43882;51.550;11.858;2023-06-10T00:21:38;17.80;;;5.63;;
58083;SDS011;43882;51.550;11.858;2023-06-10T00:25:04;17.05;;;6.00;;
58083;SDS011;43882;51.550;11.858;2023-06-10T00:28:30;16.80;;;5.57;;
58083;SDS011;43882;51.550;11.858;2023-06-10T00:31:54;16.88;;;5.35;;
58083;SDS011;43882;51.550;11.858;2023-06-10T00:35:19;16.95;;;6.15;;
58083;SDS011;43882;51.550;11.858;2023-06-10T00:38:44;16.23;;;5.68;;
58083;SDS011;43882;51.550;11.858;2023-06-10T00:42:08;15.70;;;5.75;;
58083;SDS011;43882;51.550;11.858;2023-06-10T00:45:33;17.58;;;6.05;;
58083;SDS011;43882;51.550;11.858;2023-06-10T00:48:58;17.17;;;5.65;;
58083;SDS011;43882;51.550;11.858;2023-06-10T00:52:23;18.02;;;6.45;;
58083;SDS011;43882;51.550;11.858;2023-06-10T00:55:50;16.13;;;5.93;;
58083;SDS011;43882;51.550;11.858;2023-06-10T00:59:14;17.48;;;6.35;;
58083;SDS011;43882;51.550;11.858;2023-06-10T01:02:40;17.38;;;6.15;;
58083;SDS011;43882;51.550;11.858;2023-06-10T01:09:55;17.20;;;6.18;;
58083;SDS011;43882;51.550;11.858;2023-06-10T01:13:23;18.70;;;6.75;;
58083;SDS011;43882;51.550;11.858;2023-06-10T01:16:49;17.20;;;6.50;;
58083;SDS011;43882;51.550;11.858;2023-06-10T01:20:25;16.88;;;7.50;;
58083;SDS011;43882;51.550;11.858;2023-06-10T01:23:52;20.45;;;6.93;;
58083;SDS011;43882;51.550;11.858;2023-06-10T01:27:18;17.02;;;7.18;;
58083;SDS011;43882;51.550;11.858;2023-06-10T01:34:37;19.98;;;7.68;;
58083;SDS011;43882;51.550;11.858;2023-06-10T01:38:04;19.45;;;7.97;;
58083;SDS011;43882;51.550;11.858;2023-06-10T01:41:29;18.60;;;7.38;;
58083;SDS011;43882;51.550;11.858;2023-06-10T01:44:55;18.17;;;7.03;;
58083;SDS011;43882;51.550;11.858;2023-06-10T01:48:19;17.63;;;6.97;;
58083;SDS011;43882;51.550;11.858;2023-06-10T01:51:44;17.08;;;7.20;;
58083;SDS011;43882;51.550;11.858;2023-06-10T01:55:10;18.65;;;7.63;;
58083;SDS011;43882;51.550;11.858;2023-06-10T01:58:34;17.27;;;7.35;;
58083;SDS011;43882;51.550;11.858;2023-06-10T02:01:59;18.73;;;7.70;;
58083;SDS011;43882;51.550;11.858;2023-06-10T02:05:24;18.27;;;7.60;;
58083;SDS011;43882;51.550;11.858;2023-06-10T02:08:48;19.35;;;7.65;;
58083;SDS011;43882;51.550;11.858;2023-06-10T02:12:13;18.55;;;8.32;;
58083;SDS011;43882;51.550;11.858;2023-06-10T02:15:38;17.23;;;7.70;;
58083;SDS011;43882;51.550;11.858;2023-06-10T02:19:02;18.55;;;7.65;;
58083;SDS011;43882;51.550;11.858;2023-06-10T02:22:29;19.17;;;7.88;;
58083;SDS011;43882;51.550;11.858;2023-06-10T02:25:53;20.30;;;8.25;;
58083;SDS011;43882;51.550;11.858;2023-06-10T02:29:18;19.42;;;8.45;;
58083;SDS011;43882;51.550;11.858;2023-06-10T02:32:43;21.17;;;8.50;;
58083;SDS011;43882;51.550;11.858;2023-06-10T02:36:09;20.73;;;8.18;;
58083;SDS011;43882;51.550;11.858;2023-06-10T02:39:34;20.48;;;8.45;;
58083;SDS011;43882;51.550;11.858;2023-06-10T02:42:59;18.80;;;8.95;;
58083;SDS011;43882;51.550;11.858;2023-06-10T02:46:23;21.75;;;8.90;;
58083;SDS011;43882;51.550;11.858;2023-06-10T02:49:48;20.58;;;8.85;;
58083;SDS011;43882;51.550;11.858;2023-06-10T02:53:12;18.08;;;8.90;;
58083;SDS011;43882;51.550;11.858;2023-06-10T02:56:37;21.13;;;8.88;;
58083;SDS011;43882;51.550;11.858;2023-06-10T03:00:02;20.63;;;8.52;;
58083;SDS011;43882;51.550;11.858;2023-06-10T03:03:27;21.52;;;8.90;;
58083;SDS011;43882;51.550;11.858;2023-06-10T03:06:53;20.25;;;8.95;;
58083;SDS011;43882;51.550;11.858;2023-06-10T03:10:18;21.27;;;9.02;;
58083;SDS011;43882;51.550;11.858;2023-06-10T03:13:44;19.73;;;8.63;;
58083;SDS011;43882;51.550;11.858;2023-06-10T03:17:09;22.35;;;9.52;;
58083;SDS011;43882;51.550;11.858;2023-06-10T03:20:33;22.13;;;9.05;;
58083;SDS011;43882;51.550;11.858;2023-06-10T03:23:59;21.02;;;9.32;;
58083;SDS011;43882;51.550;11.858;2023-06-10T03:27:24;22.75;;;9.60;;
58083;SDS011;43882;51.550;11.858;2023-06-10T03:30:49;21.40;;;9.95;;
58083;SDS011;43882;51.550;11.858;2023-06-10T03:34:13;19.55;;;9.85;;
58083;SDS011;43882;51.550;11.858;2023-06-10T03:37:39;21.77;;;10.02;;
58083;SDS011;43882;51.550;11.858;2023-06-10T03:41:04;23.25;;;11.57;;
58083;SDS011;43882;51.550;11.858;2023-06-10T03:44:29;20.52;;;9.95;;
58083;SDS011;43882;51.550;11.858;2023-06-10T03:47:53;21.45;;;10.15;;
58083;SDS011;43882;51.550;11.858;2023-06-10T03:51:18;21.25;;;10.00;;
58083;SDS011;43882;51.550;11.858;2023-06-10T03:54:42;21.52;;;9.88;;
58083;SDS011;43882;51.550;11.858;2023-06-10T03:58:07;20.40;;;10.13;;
58083;SDS011;43882;51.550;11.858;2023-06-10T04:01:32;19.88;;;9.63;;
58083;SDS011;43882;51.550;11.858;2023-06-10T04:04:57;22.65;;;10.48;;
58083;SDS011;43882;51.550;11.858;2023-06-10T04:08:23;21.65;;;10.50;;
58083;SDS011;43882;51.550;11.858;2023-06-10T04:11:47;21.70;;;9.90;;
58083;SDS011;43882;51.550;11.858;2023-06-10T04:15:12;20.23;;;10.13;;
58083;SDS011;43882;51.550;11.858;2023-06-10T04:18:36;23.20;;;10.50;;
58083;SDS011;43882;51.550;11.858;2023-06-10T04:22:01;23.42;;;10.43;;
58083;SDS011;43882;51.550;11.858;2023-06-10T04:25:26;23.38;;;10.48;;
58083;SDS011;43882;51.550;11.858;2023-06-10T04:28:50;23.85;;;11.10;;
58083;SDS011;43882;51.550;11.858;2023-06-10T04:32:15;21.02;;;10.63;;
58083;SDS011;43882;51.550;11.858;2023-06-10T04:35:39;21.35;;;9.88;;
58083;SDS011;43882;51.550;11.858;2023-06-10T04:39:04;21.35;;;10.57;;
58083;SDS011;43882;51.550;11.858;2023-06-10T04:42:30;20.65;;;10.38;;
58083;SDS011;43882;51.550;11.858;2023-06-10T04:45:55;24.40;;;10.25;;
58083;SDS011;43882;51.550;11.858;2023-06-10T04:49:20;21.30;;;10.40;;
58083;SDS011;43882;51.550;11.858;2023-06-10T04:52:45;21.80;;;10.00;;
58083;SDS011;43882;51.550;11.858;2023-06-10T04:56:10;23.48;;;10.50;;
58083;SDS011;43882;51.550;11.858;2023-06-10T04:59:36;22.17;;;10.13;;
58083;SDS011;43882;51.550;11.858;2023-06-10T05:03:01;23.83;;;11.23;;
58083;SDS011;43882;51.550;11.858;2023-06-10T05:06:25;23.55;;;10.45;;
58083;SDS011;43882;51.550;11.858;2023-06-10T05:09:50;22.42;;;10.65;;
58083;SDS011;43882;51.550;11.858;2023-06-10T05:13:16;23.08;;;10.40;;
58083;SDS011;43882;51.550;11.858;2023-06-10T05:16:41;21.23;;;10.18;;
58083;SDS011;43882;51.550;11.858;2023-06-10T05:20:07;21.33;;;10.85;;
58083;SDS011;43882;51.550;11.858;2023-06-10T05:23:32;22.77;;;9.43;;
58083;SDS011;43882;51.550;11.858;2023-06-10T05:26:57;22.17;;;9.77;;
58083;SDS011;43882;51.550;11.858;2023-06-10T05:30:21;21.40;;;9.60;;
58083;SDS011;43882;51.550;11.858;2023-06-10T05:33:46;22.45;;;10.65;;
58083;SDS011;43882;51.550;11.858;2023-06-10T05:37:11;20.92;;;10.10;;
58083;SDS011;43882;51.550;11.858;2023-06-10T05:40:35;23.52;;;10.57;;
58083;SDS011;43882;51.550;11.858;2023-06-10T05:44:00;26.08;;;10.70;;
58083;SDS011;43882;51.550;11.858;2023-06-10T05:47:24;22.13;;;9.85;;
58083;SDS011;43882;51.550;11.858;2023-06-10T05:50:49;22.20;;;9.43;;
58083;SDS011;43882;51.550;11.858;2023-06-10T05:54:13;22.63;;;10.23;;
58083;SDS011;43882;51.550;11.858;2023-06-10T05:57:40;22.25;;;9.88;;
58083;SDS011;43882;51.550;11.858;2023-06-10T06:01:05;25.63;;;10.48;;
58083;SDS011;43882;51.550;11.858;2023-06-10T06:04:30;24.63;;;10.68;;
58083;SDS011;43882;51.550;11.858;2023-06-10T06:08:00;22.42;;;10.80;;
58083;SDS011;43882;51.550;11.858;2023-06-10T06:11:24;23.65;;;10.75;;
58083;SDS011;43882;51.550;11.858;2023-06-10T06:14:49;21.90;;;11.02;;
58083;SDS011;43882;51.550;11.858;2023-06-10T06:18:13;25.40;;;11.95;;
58083;SDS011;43882;51.550;11.858;2023-06-10T06:21:38;24.65;;;10.93;;
58083;SDS011;43882;51.550;11.858;2023-06-10T06:25:03;22.48;;;9.82;;
58083;SDS011;43882;51.550;11.858;2023-06-10T06:28:27;21.90;;;11.15;;
58083;SDS011;43882;51.550;11.858;2023-06-10T06:31:54;23.38;;;10.43;;
58083;SDS011;43882;51.550;11.858;2023-06-10T06:35:20;22.60;;;10.65;;
58083;SDS011;43882;51.550;11.858;2023-06-10T06:38:45;21.58;;;9.85;;
58083;SDS011;43882;51.550;11.858;2023-06-10T06:42:09;22.45;;;10.98;;
58083;SDS011;43882;51.550;11.858;2023-06-10T06:45:34;23.75;;;10.18;;
58083;SDS011;43882;51.550;11.858;2023-06-10T06:48:58;22.85;;;10.55;;
58083;SDS011;43882;51.550;11.858;2023-06-10T06:52:23;21.75;;;10.45;;
58083;SDS011;43882;51.550;11.858;2023-06-10T06:55:48;20.52;;;10.10;;
58083;SDS011;43882;51.550;11.858;2023-06-10T06:59:12;21.05;;;9.77;;
58083;SDS011;43882;51.550;11.858;2023-06-10T07:02:37;20.88;;;9.85;;
58083;SDS011;43882;51.550;11.858;2023-06-10T07:06:02;22.08;;;9.23;;
58083;SDS011;43882;51.550;11.858;2023-06-10T07:09:26;22.10;;;10.02;;
58083;SDS011;43882;51.550;11.858;2023-06-10T07:12:52;22.88;;;8.98;;
58083;SDS011;43882;51.550;11.858;2023-06-10T07:16:16;23.42;;;9.73;;
58083;SDS011;43882;51.550;11.858;2023-06-10T07:19:42;21.02;;;9.82;;
58083;SDS011;43882;51.550;11.858;2023-06-10T07:23:07;22.52;;;9.95;;
58083;SDS011;43882;51.550;11.858;2023-06-10T07:26:32;19.75;;;9.55;;
58083;SDS011;43882;51.550;11.858;2023-06-10T07:29:56;22.35;;;9.73;;
58083;SDS011;43882;51.550;11.858;2023-06-10T07:33:21;20.70;;;9.85;;
58083;SDS011;43882;51.550;11.858;2023-06-10T07:36:45;21.73;;;9.60;;
58083;SDS011;43882;51.550;11.858;2023-06-10T07:40:10;23.75;;;10.60;;
58083;SDS011;43882;51.550;11.858;2023-06-10T07:43:35;23.27;;;9.82;;
58083;SDS011;43882;51.550;11.858;2023-06-10T07:47:00;22.63;;;9.52;;
58083;SDS011;43882;51.550;11.858;2023-06-10T07:50:24;21.33;;;9.30;;
58083;SDS011;43882;51.550;11.858;2023-06-10T07:53:49;20.65;;;9.43;;
58083;SDS011;43882;51.550;11.858;2023-06-10T07:57:15;21.55;;;9.27;;
58083;SDS011;43882;51.550;11.858;2023-06-10T08:00:39;21.77;;;9.45;;
58083;SDS011;43882;51.550;11.858;2023-06-10T08:04:05;19.27;;;8.98;;
58083;SDS011;43882;51.550;11.858;2023-06-10T08:07:29;20.30;;;8.65;;
58083;SDS011;43882;51.550;11.858;2023-06-10T08:10:54;20.00;;;9.82;;
58083;SDS011;43882;51.550;11.858;2023-06-10T08:14:20;22.88;;;9.60;;
58083;SDS011;43882;51.550;11.858;2023-06-10T08:17:45;19.25;;;8.40;;
58083;SDS011;43882;51.550;11.858;2023-06-10T08:21:09;19.63;;;8.32;;
58083;SDS011;43882;51.550;11.858;2023-06-10T08:24:35;19.20;;;9.15;;
58083;SDS011;43882;51.550;11.858;2023-06-10T08:27:59;18.90;;;8.90;;
58083;SDS011;43882;51.550;11.858;2023-06-10T08:31:24;21.25;;;9.15;;
58083;SDS011;43882;51.550;11.858;2023-06-10T08:34:48;20.95;;;10.18;;
58083;SDS011;43882;51.550;11.858;2023-06-10T08:38:13;20.50;;;9.75;;
58083;SDS011;43882;51.550;11.858;2023-06-10T08:41:40;20.55;;;9.23;;
58083;SDS011;43882;51.550;11.858;2023-06-10T08:45:16;20.88;;;9.25;;
58083;SDS011;43882;51.550;11.858;2023-06-10T08:48:42;19.55;;;9.10;;
58083;SDS011;43882;51.550;11.858;2023-06-10T08:52:11;19.70;;;9.10;;
58083;SDS011;43882;51.550;11.858;2023-06-10T08:55:41;21.85;;;10.48;;
58083;SDS011;43882;51.550;11.858;2023-06-10T08:59:06;20.20;;;9.98;;
58083;SDS011;43882;51.550;11.858;2023-06-10T09:02:31;21.20;;;10.40;;
58083;SDS011;43882;51.550;11.858;2023-06-10T09:05:56;21.60;;;11.52;;
58083;SDS011;43882;51.550;11.858;2023-06-10T09:09:22;22.95;;;11.40;;
58083;SDS011;43882;51.550;11.858;2023-06-10T09:12:47;20.65;;;10.77;;
58083;SDS011;43882;51.550;11.858;2023-06-10T09:16:11;20.52;;;10.93;;
58083;SDS011;43882;51.550;11.858;2023-06-10T09:19:36;21.45;;;11.50;;
58083;SDS011;43882;51.550;11.858;2023-06-10T09:23:04;21.30;;;11.88;;
58083;SDS011;43882;51.550;11.858;2023-06-10T09:26:30;19.05;;;10.60;;
58083;SDS011;43882;51.550;11.858;2023-06-10T09:29:55;21.63;;;11.70;;
58083;SDS011;43882;51.550;11.858;2023-06-10T09:33:30;21.50;;;11.43;;
58083;SDS011;43882;51.550;11.858;2023-06-10T09:36:55;22.23;;;11.20;;
58083;SDS011;43882;51.550;11.858;2023-06-10T09:40:20;21.30;;;11.00;;
58083;SDS011;43882;51.550;11.858;2023-06-10T09:43:46;20.13;;;10.55;;
58083;SDS011;43882;51.550;11.858;2023-06-10T09:47:19;19.27;;;9.82;;
58083;SDS011;43882;51.550;11.858;2023-06-10T09:50:44;19.80;;;9.90;;
58083;SDS011;43882;51.550;11.858;2023-06-10T09:54:16;19.25;;;9.32;;
58083;SDS011;43882;51.550;11.858;2023-06-10T09:57:41;19.35;;;10.02;;
58083;SDS011;43882;51.550;11.858;2023-06-10T10:01:08;20.75;;;10.43;;
58083;SDS011;43882;51.550;11.858;2023-06-10T10:04:40;19.92;;;9.68;;
58083;SDS011;43882;51.550;11.858;2023-06-10T10:08:04;18.67;;;9.50;;
58083;SDS011;43882;51.550;11.858;2023-06-10T10:11:29;22.33;;;10.02;;
58083;SDS011;43882;51.550;11.858;2023-06-10T10:14:55;21.92;;;9.80;;
58083;SDS011;43882;51.550;11.858;2023-06-10T10:18:21;20.05;;;9.90;;
58083;SDS011;43882;51.550;11.858;2023-06-10T10:21:52;18.63;;;9.18;;
58083;SDS011;43882;51.550;11.858;2023-06-10T10:25:23;17.70;;;9.00;;
58083;SDS011;43882;51.550;11.858;2023-06-10T10:28:51;19.25;;;9.35;;
58083;SDS011;43882;51.550;11.858;2023-06-10T10:32:18;18.40;;;9.05;;
58083;SDS011;43882;51.550;11.858;2023-06-10T10:35:53;20.45;;;9.20;;
58083;SDS011;43882;51.550;11.858;2023-06-10T10:39:18;18.60;;;8.80;;
58083;SDS011;43882;51.550;11.858;2023-06-10T10:42:43;18.80;;;9.25;;
58083;SDS011;43882;51.550;11.858;2023-06-10T10:46:11;18.65;;;9.77;;
58083;SDS011;43882;51.550;11.858;2023-06-10T10:49:37;18.38;;;8.77;;
58083;SDS011;43882;51.550;11.858;2023-06-10T10:53:02;19.08;;;8.77;;
58083;SDS011;43882;51.550;11.858;2023-06-10T10:56:38;19.80;;;9.35;;
58083;SDS011;43882;51.550;11.858;2023-06-10T11:00:04;19.33;;;8.80;;
58083;SDS011;43882;51.550;11.858;2023-06-10T11:03:35;19.27;;;8.82;;
58083;SDS011;43882;51.550;11.858;2023-06-10T11:07:09;17.40;;;8.68;;
58083;SDS011;43882;51.550;11.858;2023-06-10T11:10:35;18.80;;;8.63;;
58083;SDS011;43882;51.550;11.858;2023-06-10T11:17:28;19.00;;;8.68;;
58083;SDS011;43882;51.550;11.858;2023-06-10T11:21:04;18.20;;;9.23;;
58083;SDS011;43882;51.550;11.858;2023-06-10T11:24:30;17.58;;;8.68;;
58083;SDS011;43882;51.550;11.858;2023-06-10T11:28:16;18.88;;;8.85;;
58083;SDS011;43882;51.550;11.858;2023-06-10T11:31:43;17.17;;;8.90;;
58083;SDS011;43882;51.550;11.858;2023-06-10T11:35:07;19.38;;;9.18;;
58083;SDS011;43882;51.550;11.858;2023-06-10T11:38:32;18.50;;;9.05;;
58083;SDS011;43882;51.550;11.858;2023-06-10T11:41:57;19.30;;;9.32;;
58083;SDS011;43882;51.550;11.858;2023-06-10T11:45:23;17.77;;;8.70;;
58083;SDS011;43882;51.550;11.858;2023-06-10T11:48:54;18.15;;;8.77;;
58083;SDS011;43882;51.550;11.858;2023-06-10T11:52:29;17.38;;;8.65;;
58083;SDS011;43882;51.550;11.858;2023-06-10T11:55:53;19.40;;;9.00;;
58083;SDS011;43882;51.550;11.858;2023-06-10T11:59:22;17.85;;;9.07;;
58083;SDS011;43882;51.550;11.858;2023-06-10T12:02:57;18.15;;;9.30;;
58083;SDS011;43882;51.550;11.858;2023-06-10T12:09:59;17.90;;;9.07;;
58083;SDS011;43882;51.550;11.858;2023-06-10T12:13:27;17.58;;;9.70;;
58083;SDS011;43882;51.550;11.858;2023-06-10T12:17:12;17.73;;;9.32;;
58083;SDS011;43882;51.550;11.858;2023-06-10T12:20:43;18.52;;;9.77;;
58083;SDS011;43882;51.550;11.858;2023-06-10T12:24:09;17.65;;;8.98;;
58083;SDS011;43882;51.550;11.858;2023-06-10T12:27:34;18.40;;;9.20;;
58083;SDS011;43882;51.550;11.858;2023-06-10T12:31:08;19.15;;;10.57;;
58083;SDS011;43882;51.550;11.858;2023-06-10T12:34:39;19.45;;;10.18;;
58083;SDS011;43882;51.550;11.858;2023-06-10T12:41:30;17.83;;;9.73;;
58083;SDS011;43882;51.550;11.858;2023-06-10T12:44:56;19.00;;;10.10;;
58083;SDS011;43882;51.550;11.858;2023-06-10T12:48:22;19.30;;;10.32;;
58083;SDS011;43882;51.550;11.858;2023-06-10T12:51:47;19.35;;;10.20;;
58083;SDS011;43882;51.550;11.858;2023-06-10T12:55:11;17.58;;;9.80;;
58083;SDS011;43882;51.550;11.858;2023-06-10T12:58:36;18.27;;;9.75;;
58083;SDS011;43882;51.550;11.858;2023-06-10T13:02:01;18.05;;;10.10;;
58083;SDS011;43882;51.550;11.858;2023-06-10T13:05:26;17.58;;;9.32;;
58083;SDS011;43882;51.550;11.858;2023-06-10T13:08:51;18.25;;;9.82;;
58083;SDS011;43882;51.550;11.858;2023-06-10T13:12:16;19.05;;;10.05;;
58083;SDS011;43882;51.550;11.858;2023-06-10T13:15:41;19.20;;;9.43;;
58083;SDS011;43882;51.550;11.858;2023-06-10T13:19:05;17.42;;;8.95;;
58083;SDS011;43882;51.550;11.858;2023-06-10T13:22:31;17.23;;;9.20;;
58083;SDS011;43882;51.550;11.858;2023-06-10T13:25:56;18.23;;;9.07;;
58083;SDS011;43882;51.550;11.858;2023-06-10T13:29:21;17.63;;;9.05;;
58083;SDS011;43882;51.550;11.858;2023-06-10T13:32:46;17.08;;;8.60;;
58083;SDS011;43882;51.550;11.858;2023-06-10T13:36:11;18.27;;;9.13;;
58083;SDS011;43882;51.550;11.858;2023-06-10T13:39:37;16.98;;;8.65;;
58083;SDS011;43882;51.550;11.858;2023-06-10T13:43:02;19.50;;;9.70;;
58083;SDS011;43882;51.550;11.858;2023-06-10T13:46:27;18.60;;;9.65;;
58083;SDS011;43882;51.550;11.858;2023-06-10T13:49:51;18.63;;;9.13;;
58083;SDS011;43882;51.550;11.858;2023-06-10T13:53:16;16.58;;;7.65;;
58083;SDS011;43882;51.550;11.858;2023-06-10T13:56:41;19.17;;;9.70;;
58083;SDS011;43882;51.550;11.858;2023-06-10T14:00:05;17.60;;;8.00;;
58083;SDS011;43882;51.550;11.858;2023-06-10T14:03:30;17.35;;;7.88;;
58083;SDS011;43882;51.550;11.858;2023-06-10T14:06:55;15.48;;;6.43;;
58083;SDS011;43882;51.550;11.858;2023-06-10T14:10:20;17.58;;;6.45;;
58083;SDS011;43882;51.550;11.858;2023-06-10T14:13:46;16.77;;;7.32;;
58083;SDS011;43882;51.550;11.858;2023-06-10T14:17:10;17.90;;;8.52;;
58083;SDS011;43882;51.550;11.858;2023-06-10T14:20:35;18.10;;;7.63;;
58083;SDS011;43882;51.550;11.858;2023-06-10T14:23:59;17.55;;;7.53;;
58083;SDS011;43882;51.550;11.858;2023-06-10T14:27:24;15.98;;;6.18;;
58083;SDS011;43882;51.550;11.858;2023-06-10T14:30:49;18.48;;;7.03;;
58083;SDS011;43882;51.550;11.858;2023-06-10T14:34:14;17.60;;;7.93;;
58083;SDS011;43882;51.550;11.858;2023-06-10T14:37:38;20.65;;;9.15;;
58083;SDS011;43882;51.550;11.858;2023-06-10T14:41:03;20.67;;;10.45;;
58083;SDS011;43882;51.550;11.858;2023-06-10T14:44:27;22.58;;;12.13;;
58083;SDS011;43882;51.550;11.858;2023-06-10T14:47:52;19.60;;;10.93;;
58083;SDS011;43882;51.550;11.858;2023-06-10T14:51:17;19.45;;;10.38;;
58083;SDS011;43882;51.550;11.858;2023-06-10T14:54:41;19.52;;;10.23;;
58083;SDS011;43882;51.550;11.858;2023-06-10T14:58:06;20.08;;;10.55;;
58083;SDS011;43882;51.550;11.858;2023-06-10T15:01:30;20.85;;;11.40;;
58083;SDS011;43882;51.550;11.858;2023-06-10T15:04:55;22.25;;;12.40;;
58083;SDS011;43882;51.550;11.858;2023-06-10T15:08:20;22.42;;;11.70;;
58083;SDS011;43882;51.550;11.858;2023-06-10T15:11:44;21.83;;;11.73;;
58083;SDS011;43882;51.550;11.858;2023-06-10T15:15:09;19.95;;;10.45;;
58083;SDS011;43882;51.550;11.858;2023-06-10T15:18:34;19.98;;;9.77;;
58083;SDS011;43882;51.550;11.858;2023-06-10T15:21:58;19.27;;;9.93;;
58083;SDS011;43882;51.550;11.858;2023-06-10T15:25:23;19.70;;;10.10;;
58083;SDS011;43882;51.550;11.858;2023-06-10T15:28:47;20.05;;;10.10;;
58083;SDS011;43882;51.550;11.858;2023-06-10T15:32:12;21.38;;;10.20;;
58083;SDS011;43882;51.550;11.858;2023-06-10T15:35:37;20.45;;;10.07;;
58083;SDS011;43882;51.550;11.858;2023-06-10T15:39:02;20.35;;;10.50;;
58083;SDS011;43882;51.550;11.858;2023-06-10T15:42:27;20.13;;;9.40;;
58083;SDS011;43882;51.550;11.858;2023-06-10T15:45:52;18.65;;;8.40;;
58083;SDS011;43882;51.550;11.858;2023-06-10T15:49:16;18.15;;;8.40;;
58083;SDS011;43882;51.550;11.858;2023-06-10T15:52:41;18.77;;;9.35;;
58083;SDS011;43882;51.550;11.858;2023-06-10T15:56:05;19.63;;;10.88;;
58083;SDS011;43882;51.550;11.858;2023-06-10T15:59:30;20.63;;;9.55;;
58083;SDS011;43882;51.550;11.858;2023-06-10T16:02:55;19.75;;;9.65;;
58083;SDS011;43882;51.550;11.858;2023-06-10T16:06:20;21.63;;;11.30;;
58083;SDS011;43882;51.550;11.858;2023-06-10T16:09:44;19.40;;;9.60;;
58083;SDS011;43882;51.550;11.858;2023-06-10T16:13:09;19.10;;;9.57;;
58083;SDS011;43882;51.550;11.858;2023-06-10T16:16:33;18.00;;;9.30;;
58083;SDS011;43882;51.550;11.858;2023-06-10T16:19:57;19.45;;;9.45;;
58083;SDS011;43882;51.550;11.858;2023-06-10T16:23:21;22.70;;;9.68;;
58083;SDS011;43882;51.550;11.858;2023-06-10T16:26:46;18.90;;;9.48;;
58083;SDS011;43882;51.550;11.858;2023-06-10T16:30:11;19.20;;;9.93;;
58083;SDS011;43882;51.550;11.858;2023-06-10T16:33:35;18.95;;;10.10;;
58083;SDS011;43882;51.550;11.858;2023-06-10T16:37:00;22.77;;;10.77;;
58083;SDS011;43882;51.550;11.858;2023-06-10T16:40:24;17.73;;;8.93;;
58083;SDS011;43882;51.550;11.858;2023-06-10T16:43:49;19.20;;;9.30;;
58083;SDS011;43882;51.550;11.858;2023-06-10T16:47:14;21.27;;;11.55;;
58083;SDS011;43882;51.550;11.858;2023-06-10T16:50:38;46.22;;;41.13;;
58083;SDS011;43882;51.550;11.858;2023-06-10T16:54:03;33.03;;;28.05;;
58083;SDS011;43882;51.550;11.858;2023-06-10T16:57:24;33.30;;;25.60;;
58083;SDS011;43882;51.550;11.858;2023-06-10T17:00:49;68.88;;;61.97;;
58083;SDS011;43882;51.550;11.858;2023-06-10T17:04:14;39.85;;;31.58;;
58083;SDS011;43882;51.550;11.858;2023-06-10T17:07:38;38.20;;;29.60;;
58083;SDS011;43882;51.550;11.858;2023-06-10T17:11:03;33.65;;;27.95;;
58083;SDS011;43882;51.550;11.858;2023-06-10T17:14:28;32.17;;;26.75;;
58083;SDS011;43882;51.550;11.858;2023-06-10T17:17:53;23.42;;;14.38;;
58083;SDS011;43882;51.550;11.858;2023-06-10T17:21:17;22.13;;;11.80;;
58083;SDS011;43882;51.550;11.858;2023-06-10T17:24:43;20.42;;;10.82;;
58083;SDS011;43882;51.550;11.858;2023-06-10T17:28:08;19.00;;;10.75;;
58083;SDS011;43882;51.550;11.858;2023-06-10T17:31:33;18.58;;;10.35;;
58083;SDS011;43882;51.550;11.858;2023-06-10T17:34:58;17.27;;;9.15;;
58083;SDS011;43882;51.550;11.858;2023-06-10T17:38:22;19.25;;;10.27;;
58083;SDS011;43882;51.550;11.858;2023-06-10T17:41:47;18.85;;;10.80;;
58083;SDS011;43882;51.550;11.858;2023-06-10T17:45:12;18.30;;;10.00;;
58083;SDS011;43882;51.550;11.858;2023-06-10T17:48:36;19.75;;;10.75;;
58083;SDS011;43882;51.550;11.858;2023-06-10T17:52:01;19.83;;;11.23;;
58083;SDS011;43882;51.550;11.858;2023-06-10T17:55:26;20.98;;;11.13;;
58083;SDS011;43882;51.550;11.858;2023-06-10T17:58:50;21.02;;;12.65;;
58083;SDS011;43882;51.550;11.858;2023-06-10T18:02:15;26.08;;;15.30;;
58083;SDS011;43882;51.550;11.858;2023-06-10T18:05:42;19.90;;;11.45;;
58083;SDS011;43882;51.550;11.858;2023-06-10T18:09:07;21.05;;;11.60;;
58083;SDS011;43882;51.550;11.858;2023-06-10T18:12:32;23.33;;;11.85;;
58083;SDS011;43882;51.550;11.858;2023-06-10T18:15:57;20.77;;;11.38;;
58083;SDS011;43882;51.550;11.858;2023-06-10T18:19:22;20.75;;;11.07;;
58083;SDS011;43882;51.550;11.858;2023-06-10T18:22:46;21.13;;;10.73;;
58083;SDS011;43882;51.550;11.858;2023-06-10T18:26:11;21.90;;;12.18;;
58083;SDS011;43882;51.550;11.858;2023-06-10T18:29:36;23.55;;;14.63;;
58083;SDS011;43882;51.550;11.858;2023-06-10T18:33:01;22.38;;;12.32;;
58083;SDS011;43882;51.550;11.858;2023-06-10T18:36:26;25.67;;;16.23;;
58083;SDS011;43882;51.550;11.858;2023-06-10T18:39:51;23.15;;;13.90;;
58083;SDS011;43882;51.550;11.858;2023-06-10T18:43:17;23.05;;;12.30;;
58083;SDS011;43882;51.550;11.858;2023-06-10T18:46:41;26.17;;;14.23;;
58083;SDS011;43882;51.550;11.858;2023-06-10T18:50:06;26.92;;;16.83;;
58083;SDS011;43882;51.550;11.858;2023-06-10T18:53:31;26.10;;;15.80;;
58083;SDS011;43882;51.550;11.858;2023-06-10T18:56:55;21.63;;;12.10;;
58083;SDS011;43882;51.550;11.858;2023-06-10T19:00:20;24.15;;;15.20;;
58083;SDS011;43882;51.550;11.858;2023-06-10T19:03:44;23.98;;;13.65;;
58083;SDS011;43882;51.550;11.858;2023-06-10T19:07:09;21.75;;;12.93;;
58083;SDS011;43882;51.550;11.858;2023-06-10T19:10:34;24.38;;;12.95;;
58083;SDS011;43882;51.550;11.858;2023-06-10T19:13:58;24.92;;;14.75;;
58083;SDS011;43882;51.550;11.858;2023-06-10T19:17:23;28.00;;;17.42;;
58083;SDS011;43882;51.550;11.858;2023-06-10T19:20:48;24.52;;;14.05;;
58083;SDS011;43882;51.550;11.858;2023-06-10T19:24:06;25.85;;;14.93;;
58083;SDS011;43882;51.550;11.858;2023-06-10T19:27:32;25.85;;;16.38;;
58083;SDS011;43882;51.550;11.858;2023-06-10T19:30:07;24.95;;;15.05;;
58083;SDS011;43882;51.550;11.858;2023-06-10T19:33:32;22.60;;;13.40;;
58083;SDS011;43882;51.550;11.858;2023-06-10T19:36:56;27.70;;;17.63;;
58083;SDS011;43882;51.550;11.858;2023-06-10T19:40:21;26.00;;;16.15;;
58083;SDS011;43882;51.550;11.858;2023-06-10T19:43:48;25.33;;;14.85;;
58083;SDS011;43882;51.550;11.858;2023-06-10T19:46:39;26.83;;;15.65;;
58083;SDS011;43882;51.550;11.858;2023-06-10T19:49:10;25.30;;;14.35;;
58083;SDS011;43882;51.550;11.858;2023-06-10T19:52:35;25.02;;;14.55;;
58083;SDS011;43882;51.550;11.858;2023-06-10T19:56:00;25.08;;;14.48;;
58083;SDS011;43882;51.550;11.858;2023-06-10T19:59:25;26.40;;;16.98;;
58083;SDS011;43882;51.550;11.858;2023-06-10T20:02:49;28.25;;;18.15;;
58083;SDS011;43882;51.550;11.858;2023-06-10T20:06:14;24.65;;;14.80;;
58083;SDS011;43882;51.550;11.858;2023-06-10T20:09:39;24.35;;;15.02;;